METAR v bližini

 

LJLJ - Ljubljana/Brnik, Slovenia
Oddaljenost od postaje: Z 41km
Podatki zajeti: 23/04/2017 19:30
Rahlo dežuje, Pretežno oblačno
Rahlo dežuje, Pretežno oblačno
 Veter iz smeri SSZ
Veter: SSZ 7 km/h
Temperatura: 7°C
Občutek mraza zaradi vetra: 6°C
Rosišče: 4°C
Vlažnost: 81%
Tlak: 1020 hPa
Stanje: Rahlo dežuje
Oblačnost: Pretežno oblačno
Vidljivost: 10 km
Podrobnosti o oblakih: Rahlo oblačno 701 m
Pretežno oblačno 1737 m
2017/04/23 17:30 LJLJ 231730Z 33004KT 290V010 9999 -RA FEW023 BKN057 07/04 Q1020 NOSIG
LJMB - Maribor, Slovenia
Oddaljenost od postaje: SV 63km
Podatki zajeti: 23/04/2017 19:30
Pretežno oblačno
Pretežno oblačno
 Veter iz smeri spremenljiv
Veter: spremenljiv 2 km/h
Temperatura: 11°C
Rosišče: -1°C
Vlažnost: 44%
Tlak: 1020 hPa
Oblačnost: Pretežno oblačno
Vidljivost: 10 km
Podrobnosti o oblakih: Rahlo oblačno 1524 m
Pretežno oblačno 2743 m
2017/04/23 17:30 LJMB 231730Z VRB01KT 9999 FEW050 BKN090 11/M01 Q1020
 
LJPZ - Portoroz, Slovenia
Oddaljenost od postaje: JZ 130km
Podatki zajeti: 23/04/2017 19:30
Delno oblačno
Delno oblačno
 Veter iz smeri ZJZ
Veter: ZJZ 7 km/h
Temperatura: 15°C
Rosišče: 6°C
Vlažnost: 55%
Tlak: 1019 hPa
Oblačnost: Delno oblačno
Vidljivost: 10 km
Podrobnosti o oblakih: Delno oblačno 1829 m
2017/04/23 17:30 LJPZ 231730Z 25004KT 210V290 9999 SCT060 15/06 Q1019
LJCE - Cerklje, Slovenia
Oddaljenost od postaje: VJV 49km
Podatki zajeti: 23/04/2017 19:30
Delno oblačno
Delno oblačno
 Veter iz smeri ZJZ
Veter: ZJZ 2 km/h
Temperatura: 11°C
Rosišče: 4°C
Vlažnost: 62%
Tlak: 1020 hPa
Oblačnost: Delno oblačno
Vidljivost: 10 km
2017/04/23 17:30 LJCE 231730Z AUTO 24001KT 9999 NSC 11/04 Q1020
 
LDZA - Zagreb/Pleso, Croatia
Oddaljenost od postaje: VJV 96km
Podatki zajeti: 23/04/2017 19:30
Jasno
Jasno
 Veter iz smeri JV
Veter: JV 7 km/h
Temperatura: 11°C
Rosišče: 3°C
Vlažnost: 58%
Tlak: 1020 hPa
Stanje: Jasno
Vidljivost: večja od 10 km
2017/04/23 17:30 LDZA 231730Z 14004KT 110V190 CAVOK 11/03 Q1020 NOSIG
LDRI - Rijeka/Omisalj, Croatia
Oddaljenost od postaje: JJZ 109km
Podatki zajeti: 23/04/2017 19:30
Rahlo oblačno
Rahlo oblačno
 Veter iz smeri SZ
Veter: SZ 7 km/h
Temperatura: 14°C
Rosišče: 3°C
Vlažnost: 48%
Tlak: 1019 hPa
Oblačnost: Rahlo oblačno
Vidljivost: 10 km
Podrobnosti o oblakih: Rahlo oblačno 1798 m
2017/04/23 17:30 LDRI 231730Z 32004KT 9999 FEW059 14/03 Q1019
 
LDPL - Pula, Croatia
Oddaljenost od postaje: JJZ 164km
Podatki zajeti: 23/04/2017 19:30
Jasno
Jasno
 Veter iz smeri JV
Veter: JV 7 km/h
Temperatura: 12°C
Rosišče: 7°C
Vlažnost: 72%
Tlak: 1019 hPa
Stanje: Jasno
Vidljivost: večja od 10 km
2017/04/23 17:30 LDPL 231730Z 14004KT 100V160 CAVOK 12/07 Q1019 NOSIG
LOWK - Klagenfurt(Civ/M, Austria
Oddaljenost od postaje: SZ 76km
Podatki zajeti: 23/04/2017 19:20
Pretežno oblačno
Pretežno oblačno
 Veter iz smeri V
Veter: V 15 km/h
Temperatura: 11°C
Rosišče: 0°C
Vlažnost: 47%
Tlak: 1018 hPa
Oblačnost: Pretežno oblačno
Vidljivost: 10 km
Podrobnosti o oblakih: Rahlo oblačno 1219 m
Pretežno oblačno 2743 m
2017/04/23 17:20 LOWK 231720Z 08008KT 060V120 9999 FEW040 BKN090 11/00 Q1018 NOSIG
 
LOWG - Graz (mil/Civ), Austria
Oddaljenost od postaje: SSV 100km
Podatki zajeti: 23/04/2017 19:20
Delno oblačno
Delno oblačno
 Veter iz smeri S
Veter: S 13 km/h
Temperatura: 11°C
Rosišče: -3°C
Vlažnost: 38%
Tlak: 1019 hPa
Oblačnost: Delno oblačno
Vidljivost: 10 km
Podrobnosti o oblakih: Rahlo oblačno 1524 m
Delno oblačno 2438 m
2017/04/23 17:20 LOWG 231720Z 35007KT 9999 FEW050 SCT080 11/M03 Q1019 NOSIG
LOWZ - Zell Am See, Austria
Oddaljenost od postaje: SZ 211km
Podatki zajeti: 31/12/2016 17:00
Ni posodobljen
Jasno
Jasno
 Veter iz smeri spremenljiv
Veter: spremenljiv 4 km/h
Temperatura: -4°C
Rosišče: -7°C
Vlažnost: 80%
Tlak: 1031 hPa
Oblačnost: Jasno
2016/12/31 16:00 LOWZ 311600Z VRB02KT 50KM SKC M04/M07 Q1031
 
LOAN - Wr.neustadt East, Austria
Oddaljenost od postaje: SSV 212km
Podatki zajeti: 23/04/2017 19:00
Pretežno oblačno
Pretežno oblačno
 Veter iz smeri ZSZ
Veter: ZSZ 19 km/h
Oblačnost: Pretežno oblačno
Podrobnosti o oblakih: Rahlo oblačno 762 m
Delno oblačno 1219 m
Pretežno oblačno 2134 m
2017/04/23 17:00 LOAN 231700Z 29010KT 25KM FEW025CU SCT040SC BKN070SC
LIPQ - Ronchi Legionari, Italy
Oddaljenost od postaje: JZ 35km
Podatki zajeti: 23/04/2017 19:20
Delno oblačno
Delno oblačno
 Veter iz smeri JZ
Veter: JZ 9 km/h
Temperatura: 15°C
Rosišče: 7°C
Vlažnost: 59%
Tlak: 1018 hPa
Oblačnost: Delno oblačno
Vidljivost: 10 km
Podrobnosti o oblakih: Delno oblačno 1829 m
2017/04/23 17:20 LIPQ 231720Z 23005KT 9999 SCT060 15/07 Q1018
 
LIVT - Trieste, Italy
Oddaljenost od postaje: ZJZ 109km
Podatki zajeti: 23/04/2017 18:55
Delno oblačno
Delno oblačno
 Veter iz smeri calm
Veter: Tišina
Temperatura: 16°C
Rosišče: 7°C
Vlažnost: 55%
Tlak: 1018 hPa
Oblačnost: Delno oblačno
Vidljivost: 10 km
Podrobnosti o oblakih: Delno oblačno 1219 m
2017/04/23 16:55 LIVT 231655Z 00000KT 9999 SCT040 16/07 Q1018 RMK SCT QUK 0 QUL 0 VIS MAR 20 KM VIS MIN 9999
LIVO - Tarvisio, Italy
Oddaljenost od postaje: SSZ 49km
Podatki zajeti: 23/04/2017 18:55
Pretežno oblačno
Pretežno oblačno
 Veter iz smeri V
Veter: V 4 km/h
Temperatura: 6°C
Rosišče: 4°C
Vlažnost: 87%
Tlak: 1017 hPa
Oblačnost: Pretežno oblačno
Vidljivost: 10 km
Podrobnosti o oblakih: Pretežno oblačno 914 m
2017/04/23 16:55 LIVO 231655Z 08002KT 9999 BKN030 06/04 Q1017 RMK BKN VIS MIN 9999
 
LIPZ - Venezia/Tessera, Italy
Oddaljenost od postaje: ZJZ 217km
Podatki zajeti: 23/04/2017 19:20
Jasno
Jasno
 Veter iz smeri JV
Veter: JV 17 km/h
Temperatura: 14°C
Rosišče: 7°C
Vlažnost: 63%
Tlak: 1018 hPa
Stanje: Jasno
Vidljivost: večja od 10 km
2017/04/23 17:20 LIPZ 231720Z 13009KT CAVOK 14/07 Q1018 NOSIG
LHSM - Balaton, Hungary
Oddaljenost od postaje: VSV 177km
Podatki zajeti: 23/04/2017 19:15
Jasno
Jasno
 Veter iz smeri SSV
Veter: SSV 9 km/h
Temperatura: 10°C
Občutek mraza zaradi vetra: 9°C
Rosišče: -1°C
Vlažnost: 47%
Tlak: 1021 hPa
Stanje: Jasno
Vidljivost: večja od 10 km
2017/04/23 17:15 LHSM 231715Z 02005KT CAVOK 10/M01 Q1021